Terminal Aerodrome Forecast
Issued by NWS Salt Lake City, UT

Home | Current Version | Previous Version | Text Only | Print | Product List | Glossary On
Versions: 1 2 3 4 5 6 7 8 9 10 11 12
000
FTUS45 KSLC 161120
TAFCDC
TAF
KCDC 161120Z 1612/1712 07006KT P6SM SKC
     FM161800 24006KT P6SM SCT080 SCT150
     FM170300 VRB04KT P6SM SCT150=

USA.gov is the U.S. government's official web portal to all federal, state and local government web resources and services.